Time;durP1;ratioP1;P1;durP2;ratioP2;P2;SDS_P1;SDS_P2;PMS_P1;PMS_P2;Temp;Humidity;BMP_temperature;BMP_pressure;BME280_temperature;BME280_humidity;BME280_pressure;Samples;Min_cycle;Max_cycle;Signal;HPM_P1;HPM_P2
2023/12/09 00:01:00;;;;;;;1.70;1.70;;;;;;;4.60;100.00;95218.56;4353417;32;20250;-56
2023/12/09 00:03:25;;;;;;;1.80;1.80;;;;;;;4.48;100.00;95218.78;4334022;32;20198;-57
2023/12/09 00:05:50;;;;;;;2.00;1.90;;;;;;;4.64;100.00;95222.25;4319868;32;20270;-58
2023/12/09 00:08:16;;;;;;;1.30;1.23;;;;;;;4.66;100.00;95227.25;4326380;32;20215;-58
2023/12/09 00:10:41;;;;;;;1.70;1.60;;;;;;;4.62;100.00;95226.19;4314009;32;20213;-59
2023/12/09 00:13:06;;;;;;;1.57;1.50;;;;;;;4.76;100.00;95233.34;4337772;32;20232;-56
2023/12/09 00:15:32;;;;;;;1.93;1.83;;;;;;;4.67;100.00;95227.00;4324123;32;20241;-56
2023/12/09 00:17:57;;;;;;;2.10;2.00;;;;;;;4.69;100.00;95222.28;4317918;32;20216;-57
2023/12/09 00:20:23;;;;;;;2.03;1.93;;;;;;;4.76;100.00;95228.09;4329914;32;20237;-57
2023/12/09 00:22:48;;;;;;;0.80;0.80;;;;;;;4.73;100.00;95231.22;4317845;32;20224;-63
2023/12/09 00:25:13;;;;;;;1.20;1.10;;;;;;;7.60;100.00;95210.75;4323561;32;20197;-63
2023/12/09 00:27:39;;;;;;;1.60;1.60;;;;;;;11.19;100.00;95210.94;4336039;32;20228;-64
2023/12/09 00:30:06;;;;;;;1.40;1.30;;;;;;;12.08;100.00;95215.47;4337545;32;20237;-63
2023/12/09 00:32:31;;;;;;;7.43;1.40;;;;;;;12.10;96.97;95219.41;4348246;32;20281;-64
2023/12/09 00:34:57;;;;;;;0.93;0.93;;;;;;;12.25;91.28;95232.31;4342890;32;20309;-65
2023/12/09 00:37:22;;;;;;;1.70;1.10;;;;;;;13.39;78.86;95232.34;4328666;32;20297;-65
2023/12/09 00:39:48;;;;;;;1.70;1.70;;;;;;;13.38;71.56;95238.75;4350509;32;20220;-58
2023/12/09 00:42:13;;;;;;;1.23;1.23;;;;;;;12.37;70.23;95240.50;4323439;32;20277;-58
2023/12/09 00:44:39;;;;;;;4.77;1.97;;;;;;;10.99;74.42;95252.75;4323293;32;20233;-59
2023/12/09 00:47:04;;;;;;;1.17;1.17;;;;;;;9.60;79.84;95249.38;4333481;32;20210;-58
2023/12/09 00:49:29;;;;;;;1.67;1.57;;;;;;;8.45;85.63;95241.91;4315504;32;20189;-58
2023/12/09 00:51:54;;;;;;;1.43;1.33;;;;;;;7.73;94.08;95246.28;4325948;32;20254;-58
2023/12/09 00:54:20;;;;;;;4.00;2.23;;;;;;;7.17;96.69;95244.81;4336877;32;20197;-58
2023/12/09 00:56:45;;;;;;;4.33;2.03;;;;;;;6.55;100.00;95253.31;4318972;32;20221;-58
2023/12/09 00:59:10;;;;;;;2.53;2.23;;;;;;;6.35;100.00;95245.47;4331240;32;20194;-58
2023/12/09 01:01:36;;;;;;;0.87;0.87;;;;;;;6.22;100.00;95248.66;4323134;32;20229;-58
2023/12/09 01:04:02;;;;;;;1.00;1.00;;;;;;;5.96;100.00;95245.28;4343257;32;20283;-58
2023/12/09 01:06:28;;;;;;;2.07;1.50;;;;;;;5.76;100.00;95248.69;4316876;32;20216;-57
2023/12/09 01:08:53;;;;;;;1.47;1.47;;;;;;;5.75;100.00;95252.37;4314876;32;20210;-58
2023/12/09 01:11:19;;;;;;;0.93;0.93;;;;;;;5.53;100.00;95256.06;4352690;32;20298;-57
2023/12/09 01:13:44;;;;;;;1.73;1.67;;;;;;;5.38;100.00;95256.06;4322287;32;20215;-57
2023/12/09 01:16:10;;;;;;;1.57;1.50;;;;;;;5.34;100.00;95249.75;4324505;33;20198;-58
2023/12/09 01:18:35;;;;;;;2.40;2.30;;;;;;;5.18;100.00;95248.16;4327726;32;20230;-58
2023/12/09 01:21:01;;;;;;;1.47;1.47;;;;;;;5.19;100.00;95252.37;4324866;32;20288;-58
2023/12/09 01:23:26;;;;;;;1.43;1.43;;;;;;;5.22;100.00;95254.44;4317082;32;20186;-58
2023/12/09 01:25:51;;;;;;;2.27;2.17;;;;;;;5.30;100.00;95258.41;4325558;32;20257;-58
2023/12/09 01:28:17;;;;;;;1.90;1.73;;;;;;;5.19;100.00;95260.25;4335098;32;20186;-59
2023/12/09 01:30:43;;;;;;;1.90;1.80;;;;;;;5.17;100.00;95259.72;4324404;32;20201;-58
2023/12/09 01:33:08;;;;;;;1.83;1.73;;;;;;;4.96;100.00;95258.09;4345313;32;20213;-58
2023/12/09 01:35:33;;;;;;;1.37;1.37;;;;;;;4.96;100.00;95265.97;4329047;32;20240;-57
2023/12/09 01:37:59;;;;;;;2.87;1.83;;;;;;;4.92;100.00;95267.53;4335524;32;20253;-58
2023/12/09 01:40:24;;;;;;;1.70;1.60;;;;;;;5.06;100.00;95263.38;4319091;32;20315;-58
2023/12/09 01:42:49;;;;;;;1.73;1.57;;;;;;;5.00;100.00;95264.41;4314077;32;20209;-57
2023/12/09 01:45:15;;;;;;;1.13;1.13;;;;;;;5.00;100.00;95265.19;4319633;32;20265;-57
2023/12/09 01:47:41;;;;;;;1.20;1.20;;;;;;;5.05;100.00;95267.03;4344669;32;20206;-58
2023/12/09 01:50:07;;;;;;;1.93;1.87;;;;;;;5.13;100.00;95264.72;4332323;32;20253;-58
2023/12/09 01:52:34;;;;;;;1.23;1.23;;;;;;;4.81;100.00;95272.75;4343955;32;20303;-58
2023/12/09 01:55:00;;;;;;;2.07;1.97;;;;;;;4.89;100.00;95268.06;4321494;32;20353;-57
2023/12/09 01:57:27;;;;;;;2.17;2.07;;;;;;;4.65;100.00;95271.12;4318392;32;20317;-56
2023/12/09 01:59:53;;;;;;;2.13;2.03;;;;;;;4.58;100.00;95273.19;4334755;32;20297;-57
2023/12/09 02:02:19;;;;;;;1.70;1.70;;;;;;;4.75;100.00;95276.44;4336457;32;20310;-57
2023/12/09 02:04:44;;;;;;;2.40;2.30;;;;;;;4.92;100.00;95278.06;4329668;32;20301;-57
2023/12/09 02:07:09;;;;;;;1.87;1.77;;;;;;;4.82;100.00;95274.34;4329028;32;20204;-59
2023/12/09 02:09:42;;;;;;;1.77;1.67;;;;;;;4.73;100.00;95275.09;4321896;32;20194;-57
2023/12/09 02:12:22;;;;;;;2.43;2.27;;;;;;;4.73;100.00;95275.91;4333298;32;20226;-58
2023/12/09 02:15:03;;;;;;;1.27;1.27;;;;;;;4.70;100.00;95270.38;4332121;32;20282;-58
2023/12/09 02:17:49;;;;;;;1.07;1.07;;;;;;;4.77;100.00;95274.34;4336232;32;20336;-58
2023/12/09 02:20:15;;;;;;;2.53;2.33;;;;;;;4.64;100.00;95285.31;4324733;32;20282;-58
2023/12/09 02:22:40;;;;;;;2.03;1.90;;;;;;;4.62;100.00;95278.72;4328845;32;20278;-57
2023/12/09 02:25:07;;;;;;;2.17;2.03;;;;;;;4.72;100.00;95279.56;4322456;32;20213;-58
2023/12/09 02:27:43;;;;;;;1.80;1.70;;;;;;;4.75;100.00;95284.31;4325553;32;20273;-56
2023/12/09 02:30:17;;;;;;;2.47;2.37;;;;;;;4.84;100.00;95289.84;4330347;32;20361;-57
2023/12/09 02:32:44;;;;;;;2.13;2.00;;;;;;;4.82;100.00;95290.09;4330473;32;20295;-57
2023/12/09 02:35:11;;;;;;;1.33;1.23;;;;;;;4.88;100.00;95287.50;4321673;32;20341;-55
2023/12/09 02:37:37;;;;;;;1.50;1.47;;;;;;;4.50;100.00;95281.56;4320817;32;20374;-58
2023/12/09 02:40:06;;;;;;;2.57;2.47;;;;;;;4.57;100.00;95286.59;4316563;32;20283;-58
2023/12/09 02:42:31;;;;;;;2.20;2.10;;;;;;;4.55;100.00;95283.44;4339993;32;20336;-58
2023/12/09 02:44:57;;;;;;;1.73;1.73;;;;;;;4.38;100.00;95291.47;4321818;32;20278;-57
2023/12/09 02:47:22;;;;;;;1.77;1.70;;;;;;;4.38;100.00;95294.09;4319449;32;20212;-58
2023/12/09 02:49:47;;;;;;;1.50;1.50;;;;;;;4.52;100.00;95292.63;4329317;32;20214;-57
2023/12/09 02:52:13;;;;;;;1.60;1.57;;;;;;;4.52;100.00;95300.50;4332397;32;20269;-58
2023/12/09 02:54:38;;;;;;;2.80;2.43;;;;;;;4.38;100.00;95294.09;4331850;32;20194;-58
2023/12/09 02:57:04;;;;;;;1.93;1.83;;;;;;;4.31;100.00;95298.81;4323259;32;20185;-58
2023/12/09 02:59:30;;;;;;;1.50;1.50;;;;;;;4.41;100.00;95298.84;4320393;32;20235;-57
2023/12/09 03:01:56;;;;;;;1.03;1.03;;;;;;;4.33;100.00;95304.59;4353427;32;20190;-57
2023/12/09 03:04:21;;;;;;;0.80;0.80;;;;;;;4.32;100.00;95300.38;4330735;32;20278;-58
2023/12/09 03:06:47;;;;;;;0.73;0.73;;;;;;;4.40;100.00;95303.31;4320746;32;20253;-57
2023/12/09 03:09:12;;;;;;;1.43;1.43;;;;;;;4.39;100.00;95306.19;4328510;32;20190;-58
2023/12/09 03:11:37;;;;;;;2.03;1.93;;;;;;;4.54;100.00;95305.50;4334586;32;20237;-58
2023/12/09 03:14:03;;;;;;;1.00;0.90;;;;;;;4.43;100.00;95302.00;4333063;32;20204;-57
2023/12/09 03:16:28;;;;;;;1.10;1.10;;;;;;;4.39;100.00;95303.56;4331437;32;20260;-58
2023/12/09 03:18:53;;;;;;;1.40;1.30;;;;;;;4.52;100.00;95305.75;4317324;32;20209;-58
2023/12/09 03:21:19;;;;;;;1.70;1.60;;;;;;;4.53;100.00;95309.16;4323990;32;20206;-58
2023/12/09 03:23:44;;;;;;;0.67;0.67;;;;;;;4.64;100.00;95308.94;4326130;32;20228;-58
2023/12/09 03:26:16;;;;;;;1.00;1.00;;;;;;;4.67;100.00;95312.91;4313631;32;20194;-58
2023/12/09 03:28:42;;;;;;;1.03;1.03;;;;;;;4.50;100.00;95313.09;4324284;32;20219;-58
2023/12/09 03:31:13;;;;;;;0.97;0.97;;;;;;;4.61;100.00;95317.34;4319934;32;20290;-58
2023/12/09 03:33:39;;;;;;;1.40;1.40;;;;;;;4.72;100.00;95321.59;4335719;32;20239;-58
2023/12/09 03:36:09;;;;;;;1.20;1.20;;;;;;;4.82;100.00;95319.00;4331929;32;20325;-58
2023/12/09 03:38:34;;;;;;;0.80;0.80;;;;;;;4.86;100.00;95311.41;4341902;32;20341;-58
2023/12/09 03:41:03;;;;;;;1.03;1.03;;;;;;;4.88;100.00;95309.31;4349405;32;20298;-57
2023/12/09 03:43:28;;;;;;;1.00;1.00;;;;;;;4.71;100.00;95314.78;4340408;32;20208;-57
2023/12/09 03:45:53;;;;;;;0.40;0.40;;;;;;;4.60;100.00;95328.09;4324137;32;20377;-58
2023/12/09 03:48:19;;;;;;;1.67;1.57;;;;;;;4.52;100.00;95326.75;4330313;32;20205;-58
2023/12/09 03:50:44;;;;;;;0.97;0.87;;;;;;;4.55;100.00;95325.47;4348580;32;20189;-58
2023/12/09 03:53:09;;;;;;;1.03;1.03;;;;;;;4.47;100.00;95324.91;4349539;32;20202;-57
2023/12/09 03:55:35;;;;;;;0.87;0.87;;;;;;;4.54;100.00;95319.44;4320882;32;20258;-58
2023/12/09 03:58:00;;;;;;;1.20;1.17;;;;;;;4.61;100.00;95319.97;4335637;32;20189;-56
2023/12/09 04:00:25;;;;;;;1.73;1.67;;;;;;;4.68;100.00;95325.00;4333164;32;20197;-57
2023/12/09 04:02:51;;;;;;;5.70;1.27;;;;;;;4.53;100.00;95319.69;4327605;32;20213;-58
2023/12/09 04:05:16;;;;;;;1.20;1.20;;;;;;;4.61;100.00;95312.09;4348476;32;20197;-57
2023/12/09 04:07:41;;;;;;;1.70;1.57;;;;;;;4.53;100.00;95315.22;4321754;32;20201;-61
2023/12/09 04:10:09;;;;;;;1.57;1.57;;;;;;;4.64;100.00;95311.56;4338005;32;20216;-58
2023/12/09 04:12:34;;;;;;;0.93;0.93;;;;;;;4.54;100.00;95308.13;4343870;32;20350;-58
2023/12/09 04:15:01;;;;;;;1.30;1.30;;;;;;;4.71;100.00;95303.47;4328483;32;20283;-57
2023/12/09 04:17:26;;;;;;;1.50;1.43;;;;;;;4.72;100.00;95300.59;4321490;32;20189;-58
2023/12/09 04:19:52;;;;;;;1.87;1.67;;;;;;;4.78;100.00;95285.66;4325135;32;20327;-59
2023/12/09 04:22:17;;;;;;;1.57;1.50;;;;;;;4.92;100.00;95294.62;4321226;32;20186;-58
2023/12/09 04:24:42;;;;;;;1.37;1.27;;;;;;;4.94;100.00;95286.47;4322355;32;20212;-58
2023/12/09 04:27:08;;;;;;;3.10;1.73;;;;;;;5.08;100.00;95279.66;4325805;32;20256;-58
2023/12/09 04:29:34;;;;;;;1.63;1.57;;;;;;;5.11;100.00;95279.16;4328953;32;20220;-59
2023/12/09 04:31:59;;;;;;;1.80;1.23;;;;;;;5.16;100.00;95281.81;4320846;32;20201;-58
2023/12/09 04:34:24;;;;;;;1.00;1.00;;;;;;;5.12;100.00;95276.28;4327729;32;20247;-58
2023/12/09 04:36:50;;;;;;;2.30;2.20;;;;;;;5.01;100.00;95290.44;4329973;32;20212;-58
2023/12/09 04:39:15;;;;;;;1.77;1.67;;;;;;;5.01;100.00;95285.16;4324837;32;20267;-55
2023/12/09 04:41:40;;;;;;;2.13;2.03;;;;;;;5.14;100.00;95286.53;4323827;32;20198;-57
2023/12/09 04:44:06;;;;;;;2.13;2.03;;;;;;;5.24;100.00;95281.28;4321540;32;20202;-58
2023/12/09 04:46:31;;;;;;;1.53;1.53;;;;;;;5.19;100.00;95278.66;4321575;32;20265;-58
2023/12/09 04:48:57;;;;;;;0.97;0.97;;;;;;;5.21;100.00;95273.91;4327291;32;20182;-57
2023/12/09 04:51:23;;;;;;;1.33;1.33;;;;;;;5.27;100.00;95277.34;4323110;32;20182;-57
2023/12/09 04:53:48;;;;;;;1.20;1.20;;;;;;;5.20;100.00;95271.56;4344845;32;20189;-58
2023/12/09 04:56:14;;;;;;;2.07;1.97;;;;;;;5.10;100.00;95262.59;4324251;32;20206;-58
2023/12/09 04:58:39;;;;;;;1.47;1.37;;;;;;;5.21;100.00;95270.50;4330814;32;20208;-57
2023/12/09 05:01:05;;;;;;;4.03;1.40;;;;;;;5.28;100.00;95268.41;4336445;32;20267;-58
2023/12/09 05:03:30;;;;;;;1.27;1.20;;;;;;;5.30;100.00;95271.56;4328840;32;20174;-58
2023/12/09 05:05:56;;;;;;;1.60;1.53;;;;;;;5.30;100.00;95269.72;4319962;32;20265;-57
2023/12/09 05:08:21;;;;;;;3.00;2.30;;;;;;;5.34;100.00;95276.06;4329751;32;20245;-58
2023/12/09 05:10:46;;;;;;;1.97;1.87;;;;;;;5.39;100.00;95289.22;4328530;32;20179;-58
2023/12/09 05:13:12;;;;;;;1.27;1.27;;;;;;;5.33;100.00;95282.34;4324851;32;20185;-61
2023/12/09 05:15:37;;;;;;;1.70;1.60;;;;;;;5.38;100.00;95287.62;4332522;32;20181;-58
2023/12/09 05:18:05;;;;;;;2.10;2.00;;;;;;;5.14;100.00;95281.28;4326261;32;20197;-58
2023/12/09 05:20:30;;;;;;;1.77;1.70;;;;;;;5.17;100.00;95284.19;4339673;32;20207;-58
2023/12/09 05:22:56;;;;;;;1.43;1.33;;;;;;;5.11;100.00;95289.69;4333441;32;20311;-57
2023/12/09 05:25:21;;;;;;;1.37;1.33;;;;;;;5.21;100.00;95288.91;4330116;32;20175;-58
2023/12/09 05:27:47;;;;;;;13.73;2.80;;;;;;;5.19;100.00;95286.56;4337687;32;20283;-58
2023/12/09 05:30:13;;;;;;;3.23;0.83;;;;;;;5.29;100.00;95286.56;4330880;32;20225;-58
2023/12/09 05:32:38;;;;;;;1.67;1.63;;;;;;;5.26;100.00;95284.44;4327113;32;20194;-58
2023/12/09 05:35:04;;;;;;;1.83;1.73;;;;;;;5.23;100.00;95284.16;4354277;32;20178;-58
2023/12/09 05:37:29;;;;;;;0.77;0.77;;;;;;;5.23;100.00;95284.97;4346651;32;20227;-57
2023/12/09 05:39:54;;;;;;;0.83;0.83;;;;;;;5.28;100.00;95286.81;4331318;32;20200;-57
2023/12/09 05:42:20;;;;;;;1.50;1.40;;;;;;;5.35;100.00;95288.16;4319823;32;20185;-57
2023/12/09 05:44:45;;;;;;;1.20;1.20;;;;;;;5.38;100.00;95285.00;4318447;32;20194;-58
2023/12/09 05:47:10;;;;;;;3.57;2.00;;;;;;;5.44;100.00;95289.19;4322235;32;20213;-58
2023/12/09 05:49:36;;;;;;;1.93;1.43;;;;;;;5.29;100.00;95296.28;4340546;32;20174;-58
2023/12/09 05:52:01;;;;;;;4.73;2.13;;;;;;;5.22;100.00;95287.84;4345044;32;20344;-58
2023/12/09 05:54:26;;;;;;;1.83;1.73;;;;;;;5.24;100.00;95297.06;4320957;32;20214;-58
2023/12/09 05:56:52;;;;;;;1.57;1.47;;;;;;;5.24;100.00;95297.06;4332200;32;20193;-58
2023/12/09 05:59:17;;;;;;;1.27;1.20;;;;;;;5.23;100.00;95290.22;4341733;32;20190;-58
2023/12/09 06:01:42;;;;;;;2.63;1.40;;;;;;;5.18;100.00;95304.16;4337523;32;20192;-58
2023/12/09 06:04:08;;;;;;;0.80;0.80;;;;;;;5.02;100.00;95302.53;4327846;32;20204;-58
2023/12/09 06:06:34;;;;;;;0.97;0.97;;;;;;;5.08;100.00;95298.06;4327039;32;20185;-59
2023/12/09 06:08:59;;;;;;;1.03;1.03;;;;;;;5.10;100.00;95304.66;4348779;32;20211;-58
2023/12/09 06:11:25;;;;;;;1.87;1.73;;;;;;;5.26;100.00;95299.44;4337904;32;20236;-58
2023/12/09 06:13:50;;;;;;;1.20;1.20;;;;;;;5.34;100.00;95307.63;4337543;32;20257;-58
2023/12/09 06:16:19;;;;;;;1.17;1.17;;;;;;;5.24;100.00;95312.84;4323905;32;20182;-57
2023/12/09 06:18:45;;;;;;;1.23;1.23;;;;;;;5.25;100.00;95308.38;4322837;32;20283;-58
2023/12/09 06:21:25;;;;;;;7.20;2.03;;;;;;;5.31;100.00;95302.88;4327765;32;20275;-58
2023/12/09 06:23:51;;;;;;;1.57;1.10;;;;;;;5.37;100.00;95312.34;4329080;32;20292;-58
2023/12/09 06:26:17;;;;;;;1.70;1.13;;;;;;;5.40;100.00;95306.53;4334222;32;20287;-59
2023/12/09 06:28:42;;;;;;;1.27;1.27;;;;;;;5.32;100.00;95304.44;4327294;32;20261;-58
2023/12/09 06:31:10;;;;;;;1.20;1.17;;;;;;;5.24;100.00;95301.53;4321249;32;20182;-57
2023/12/09 06:36:57;;;;;;;0.90;0.90;;;;;;;5.25;100.00;95306.53;4314329;32;20286;-58
2023/12/09 06:39:23;;;;;;;0.93;0.93;;;;;;;5.36;100.00;95305.50;4323943;32;20291;-58
2023/12/09 06:41:51;;;;;;;3.50;1.57;;;;;;;5.35;100.00;95303.94;4315991;32;20189;-57
2023/12/09 06:44:16;;;;;;;1.03;1.03;;;;;;;5.33;100.00;95302.59;4337066;32;20189;-57
2023/12/09 06:46:41;;;;;;;0.70;0.70;;;;;;;5.33;100.00;95292.88;4321732;32;20326;-58
2023/12/09 06:49:07;;;;;;;1.63;1.60;;;;;;;5.38;100.00;95298.16;4326785;32;20251;-58
2023/12/09 06:51:33;;;;;;;0.90;0.90;;;;;;;5.28;100.00;95298.13;4312338;32;20289;-58
2023/12/09 06:54:00;;;;;;;1.70;1.03;;;;;;;5.28;100.00;95305.22;4345728;32;20254;-58
2023/12/09 06:56:25;;;;;;;1.70;1.60;;;;;;;5.32;100.00;95304.44;4344598;32;20229;-58
2023/12/09 06:58:51;;;;;;;1.37;1.37;;;;;;;5.27;100.00;95312.31;4326318;32;20298;-58
2023/12/09 07:01:23;;;;;;;0.93;0.93;;;;;;;5.27;100.00;95308.91;4316151;32;20190;-58
2023/12/09 07:03:49;;;;;;;1.97;1.87;;;;;;;5.13;100.00;95305.97;4334643;32;20223;-58
2023/12/09 07:06:25;;;;;;;1.23;1.23;;;;;;;5.09;100.00;95304.91;4323396;32;20283;-58
2023/12/09 07:08:51;;;;;;;0.90;0.90;;;;;;;5.20;100.00;95316.25;4321370;32;20181;-57
2023/12/09 07:11:17;;;;;;;1.97;1.27;;;;;;;5.30;100.00;95311.00;4324043;32;20288;-58
2023/12/09 07:13:43;;;;;;;2.43;2.27;;;;;;;5.21;100.00;95315.19;4333356;32;20315;-59
2023/12/09 07:16:10;;;;;;;0.67;0.67;;;;;;;5.21;100.00;95323.06;4326403;32;20278;-56
2023/12/09 07:18:43;;;;;;;0.90;0.90;;;;;;;5.24;100.00;95325.97;4317165;32;20182;-57
2023/12/09 07:21:09;;;;;;;1.03;1.03;;;;;;;5.37;100.00;95314.97;4338729;32;20317;-58
2023/12/09 07:23:34;;;;;;;4.07;1.27;;;;;;;5.37;100.00;95314.19;4334181;32;20290;-58
2023/12/09 07:25:59;;;;;;;1.20;1.20;;;;;;;5.40;100.00;95314.44;4338677;32;20232;-58
2023/12/09 07:28:25;;;;;;;1.37;1.27;;;;;;;5.28;100.00;95306.00;4312144;32;20186;-57
2023/12/09 07:30:50;;;;;;;1.50;1.43;;;;;;;5.35;100.00;95303.94;4337083;32;20185;-58
2023/12/09 07:33:16;;;;;;;3.07;1.83;;;;;;;5.42;100.00;95301.03;4332786;32;20233;-56
2023/12/09 07:35:41;;;;;;;1.40;1.40;;;;;;;5.33;100.00;95303.41;4339612;32;20200;-57
2023/12/09 07:38:06;;;;;;;2.57;2.20;;;;;;;5.40;100.00;95300.53;4324536;32;20237;-57
2023/12/09 07:40:32;;;;;;;1.33;1.33;;;;;;;5.30;100.00;95296.03;4320201;32;20257;-58
2023/12/09 07:42:57;;;;;;;1.73;1.40;;;;;;;5.34;100.00;95294.47;4316188;32;20192;-56
2023/12/09 07:45:22;;;;;;;0.60;0.60;;;;;;;5.21;100.00;95284.44;4322299;32;20256;-58
2023/12/09 07:47:48;;;;;;;2.33;2.17;;;;;;;5.40;100.00;95280.25;4314673;32;20186;-57
2023/12/09 07:50:13;;;;;;;1.63;1.57;;;;;;;5.49;100.00;95283.94;4332556;32;20226;-58
2023/12/09 07:52:39;;;;;;;3.57;1.43;;;;;;;5.57;100.00;95281.88;4339363;32;20174;-58
2023/12/09 07:55:06;;;;;;;2.00;1.50;;;;;;;5.55;100.00;95289.22;4331815;32;20186;-58
2023/12/09 07:57:32;;;;;;;1.37;1.17;;;;;;;5.53;100.00;95295.53;4314380;32;22927;-58
2023/12/09 07:59:57;;;;;;;1.00;1.00;;;;;;;5.52;100.00;95280.81;4323286;32;20297;-58
2023/12/09 08:02:22;;;;;;;2.17;1.97;;;;;;;5.55;100.00;95274.22;4321032;32;20181;-58
2023/12/09 08:04:48;;;;;;;0.97;0.97;;;;;;;5.40;100.00;95272.34;4338164;32;20194;-58
2023/12/09 08:07:13;;;;;;;0.83;0.83;;;;;;;5.29;100.00;95276.03;4337281;32;20199;-58
2023/12/09 08:09:38;;;;;;;1.23;1.13;;;;;;;5.26;100.00;95279.19;4342845;32;20257;-57
2023/12/09 08:12:04;;;;;;;1.27;1.27;;;;;;;5.46;100.00;95294.19;4330512;32;20204;-58
2023/12/09 08:14:29;;;;;;;2.20;2.03;;;;;;;5.41;100.00;95292.34;4318423;32;20212;-57
2023/12/09 08:16:55;;;;;;;1.60;1.50;;;;;;;5.49;100.00;95289.22;4349982;32;20225;-58
2023/12/09 08:19:20;;;;;;;1.70;1.70;;;;;;;5.38;100.00;95287.62;4312925;32;20208;-57
2023/12/09 08:21:45;;;;;;;1.70;1.60;;;;;;;5.35;100.00;95272.38;4316528;32;20206;-58
2023/12/09 08:24:11;;;;;;;1.30;1.30;;;;;;;5.35;100.00;95282.09;4331887;32;20186;-57
2023/12/09 08:26:37;;;;;;;1.43;1.43;;;;;;;5.46;100.00;95278.41;4332339;32;20209;-58
2023/12/09 08:29:04;;;;;;;1.20;1.20;;;;;;;5.41;100.00;95281.81;4323022;32;20316;-59
2023/12/09 08:31:29;;;;;;;2.43;1.20;;;;;;;5.53;100.00;95274.50;4319927;32;20208;-57
2023/12/09 08:33:56;;;;;;;1.37;1.37;;;;;;;5.54;100.00;95270.00;4340591;32;20291;-57
2023/12/09 08:36:21;;;;;;;1.10;1.10;;;;;;;5.53;100.00;95268.44;4335037;32;20255;-57
2023/12/09 08:38:47;;;;;;;1.30;1.30;;;;;;;5.29;100.00;95270.78;4321047;32;20302;-58
2023/12/09 08:41:12;;;;;;;1.17;1.17;;;;;;;5.35;100.00;95267.09;4324025;32;20277;-60
2023/12/09 08:43:37;;;;;;;2.00;1.53;;;;;;;5.49;100.00;95273.44;4317431;32;20209;-58
2023/12/09 08:46:03;;;;;;;2.93;2.00;;;;;;;5.51;100.00;95284.47;4322884;32;20201;-58
2023/12/09 08:48:28;;;;;;;1.00;1.00;;;;;;;5.55;100.00;95276.06;4334787;32;20191;-58
2023/12/09 08:50:53;;;;;;;3.40;2.27;;;;;;;5.50;100.00;95269.75;4318460;32;20255;-58
2023/12/09 08:53:19;;;;;;;4.13;1.53;;;;;;;5.39;100.00;95273.44;4336389;32;20207;-58
2023/12/09 08:55:44;;;;;;;1.30;1.30;;;;;;;5.58;100.00;95271.06;4341083;32;20220;-58
2023/12/09 08:58:09;;;;;;;1.07;1.07;;;;;;;5.51;100.00;95276.59;4317554;32;20189;-57
2023/12/09 09:00:35;;;;;;;1.30;1.30;;;;;;;5.64;100.00;95269.22;4331310;32;20178;-58
2023/12/09 09:03:03;;;;;;;1.30;1.17;;;;;;;5.67;100.00;95266.84;4337560;32;20201;-58
2023/12/09 09:05:28;;;;;;;1.87;1.77;;;;;;;5.60;100.00;95270.81;4340456;32;20185;-55
2023/12/09 09:07:53;;;;;;;1.80;1.70;;;;;;;5.77;100.00;95258.19;4329236;32;20286;-58
2023/12/09 09:10:18;;;;;;;1.80;1.70;;;;;;;5.80;100.00;95270.81;4343784;32;20198;-57
2023/12/09 09:12:46;;;;;;;1.73;1.47;;;;;;;5.80;100.00;95274.25;4338125;32;20256;-57
2023/12/09 09:15:12;;;;;;;0.97;0.97;;;;;;;5.73;100.00;95275.53;4317173;32;20190;-55
2023/12/09 09:17:39;;;;;;;0.70;0.70;;;;;;;5.73;100.00;95275.53;4329861;32;20301;-58
2023/12/09 09:20:06;;;;;;;1.47;1.47;;;;;;;5.91;100.00;95271.62;4316315;32;20221;-58
2023/12/09 09:22:31;;;;;;;1.83;1.67;;;;;;;5.96;100.00;95268.97;4318445;32;20283;-58
2023/12/09 09:24:58;;;;;;;0.90;0.90;;;;;;;5.89;100.00;95261.34;4344079;32;20418;-58
2023/12/09 09:27:23;;;;;;;1.03;1.03;;;;;;;6.08;100.00;95259.75;4345495;32;20186;-57
2023/12/09 09:29:49;;;;;;;1.10;1.10;;;;;;;6.22;100.00;95253.94;4319197;32;20279;-58
2023/12/09 09:32:16;;;;;;;1.00;1.00;;;;;;;6.17;100.00;95252.87;4341156;32;20194;-58
2023/12/09 09:34:41;;;;;;;0.80;0.80;;;;;;;6.29;100.00;95251.78;4323833;32;20178;-58
2023/12/09 09:37:08;;;;;;;1.37;1.37;;;;;;;6.20;100.00;95241.81;4325605;32;20305;-58
2023/12/09 09:39:33;;;;;;;2.07;1.53;;;;;;;6.29;100.00;95247.31;4330398;32;20261;-58
2023/12/09 09:42:10;;;;;;;1.57;1.17;;;;;;;6.22;100.00;95241.56;4320059;32;20332;-58
2023/12/09 09:44:43;;;;;;;0.70;0.70;;;;;;;6.38;100.00;95235.19;4325874;32;20268;-57
2023/12/09 09:47:10;;;;;;;1.73;1.63;;;;;;;6.39;100.00;95230.72;4334096;32;20286;-58
2023/12/09 09:49:37;;;;;;;1.80;1.30;;;;;;;6.42;100.00;95232.81;4325638;32;20285;-58
2023/12/09 09:52:05;;;;;;;1.23;1.00;;;;;;;6.38;100.00;95218.59;4315986;32;20376;-57
2023/12/09 09:54:31;;;;;;;0.80;0.80;;;;;;;6.41;100.00;95218.06;4324836;32;20278;-58
2023/12/09 09:56:58;;;;;;;1.13;1.13;;;;;;;6.43;100.00;95208.03;4336705;32;20282;-58
2023/12/09 09:59:25;;;;;;;1.67;1.60;;;;;;;6.48;100.00;95200.88;4325813;32;20290;-56
2023/12/09 10:01:50;;;;;;;13.87;2.63;;;;;;;6.43;100.00;95192.22;4338393;32;20337;-66
2023/12/09 10:04:16;;;;;;;6.63;1.50;;;;;;;9.53;100.00;95174.84;4319365;32;20283;-66
2023/12/09 10:06:43;;;;;;;1.43;0.93;;;;;;;11.12;100.00;95178.69;4337997;32;20265;-66
2023/12/09 10:09:08;;;;;;;1.40;1.00;;;;;;;12.78;100.00;95164.88;4321823;32;20190;-67
2023/12/09 10:11:34;;;;;;;1.13;1.03;;;;;;;13.46;98.43;95168.72;4317468;32;20248;-67
2023/12/09 10:13:59;;;;;;;0.50;0.50;;;;;;;13.54;92.16;95162.56;4336962;32;20181;-66
2023/12/09 10:16:25;;;;;;;2.60;1.00;;;;;;;13.95;88.63;95164.69;4324020;32;20210;-66
2023/12/09 10:18:50;;;;;;;2.63;2.17;;;;;;;14.00;86.03;95153.06;4326564;32;20182;-67
2023/12/09 10:21:15;;;;;;;2.03;1.70;;;;;;;14.43;84.31;95143.03;4338975;32;20190;-66
2023/12/09 10:23:44;;;;;;;8.47;1.87;;;;;;;13.93;82.52;95140.22;4316847;32;20209;-66
2023/12/09 10:26:09;;;;;;;1.07;1.07;;;;;;;13.63;85.35;95128.69;4317279;32;20214;-58
2023/12/09 10:28:35;;;;;;;1.27;1.17;;;;;;;12.28;82.50;95117.31;4323829;32;20201;-57
2023/12/09 10:31:01;;;;;;;1.90;1.40;;;;;;;11.13;86.33;95112.03;4331925;32;20213;-58
2023/12/09 10:33:30;;;;;;;1.03;1.00;;;;;;;10.41;90.01;95111.22;4336572;32;20185;-58
2023/12/09 10:35:56;;;;;;;0.77;0.77;;;;;;;9.67;94.27;95113.16;4351607;32;20244;-57
2023/12/09 10:38:22;;;;;;;0.30;0.30;;;;;;;8.74;99.54;95106.97;4337826;32;20170;-67
2023/12/09 10:40:49;;;;;;;0.60;0.60;;;;;;;8.05;100.00;95101.25;4332755;32;20241;-67
2023/12/09 10:43:15;;;;;;;0.33;0.33;;;;;;;7.86;100.00;95101.19;4329626;32;20291;-67
2023/12/09 10:45:41;;;;;;;0.67;0.67;;;;;;;7.98;100.00;95105.28;4318656;32;20197;-67
2023/12/09 10:48:07;;;;;;;2.60;1.00;;;;;;;7.86;100.00;95101.19;4326640;32;20268;-67
2023/12/09 10:50:33;;;;;;;0.77;0.73;;;;;;;8.25;100.00;95094.91;4337480;32;20182;-68
2023/12/09 10:52:58;;;;;;;0.77;0.77;;;;;;;8.15;100.00;95084.47;4322609;32;20197;-67
2023/12/09 10:55:24;;;;;;;0.30;0.30;;;;;;;8.19;100.00;95088.91;4321519;32;20198;-67
2023/12/09 10:57:50;;;;;;;1.33;1.23;;;;;;;8.37;100.00;95076.81;4334400;32;20190;-67
2023/12/09 11:00:18;;;;;;;0.73;0.70;;;;;;;8.49;100.00;95074.53;4335892;32;20237;-67
2023/12/09 11:02:45;;;;;;;0.93;0.80;;;;;;;8.60;100.00;95065.38;4326376;32;20193;-67
2023/12/09 11:05:11;;;;;;;1.37;1.27;;;;;;;8.64;100.00;95060.31;4326139;32;20197;-67
2023/12/09 11:07:37;;;;;;;0.53;0.53;;;;;;;8.71;100.00;95059.97;4321146;32;20201;-67
2023/12/09 11:10:06;;;;;;;2.87;1.10;;;;;;;8.85;100.00;95064.22;4323390;32;20360;-67
2023/12/09 11:12:32;;;;;;;0.47;0.47;;;;;;;9.78;100.00;95062.34;4322451;32;20181;-67
2023/12/09 11:15:13;;;;;;;1.27;0.57;;;;;;;9.16;100.00;95058.44;4317238;32;20186;-67
2023/12/09 11:17:49;;;;;;;1.10;1.00;;;;;;;8.74;100.00;95054.84;4321771;32;20177;-67
2023/12/09 11:20:18;;;;;;;1.13;1.03;;;;;;;9.07;100.00;95050.38;4334274;32;20264;-67
2023/12/09 11:22:45;;;;;;;0.80;0.80;;;;;;;8.73;100.00;95044.59;4323066;32;20209;-64
2023/12/09 11:25:16;;;;;;;0.70;0.70;;;;;;;8.61;100.00;95045.81;4343368;32;20185;-67
2023/12/09 11:27:42;;;;;;;0.63;0.63;;;;;;;8.91;100.00;95044.56;4329038;32;20196;-67
2023/12/09 11:30:29;;;;;;;0.87;0.87;;;;;;;9.12;100.00;95046.87;4328256;32;20245;-67
2023/12/09 11:32:54;;;;;;;0.33;0.33;;;;;;;9.10;100.00;95043.72;4322999;32;20311;-67